Time;durP1;ratioP1;P1;durP2;ratioP2;P2;SDS_P1;SDS_P2;PMS_P1;PMS_P2;Temp;Humidity;BMP_temperature;BMP_pressure;BME280_temperature;BME280_humidity;BME280_pressure;Samples;Min_cycle;Max_cycle;Signal;HPM_P1;HPM_P2
2022/03/17 05:02:19;;;;;;;28.65;20.42;;;;;;;7.54;54.83;101725.19;5606217;31;80724;-54
2022/03/17 05:05:22;;;;;;;30.15;19.80;;;;;;;7.54;54.83;101725.19;5583505;32;34008;-54
2022/03/17 05:08:24;;;;;;;25.73;19.52;;;;;;;7.11;55.22;101737.84;5575734;31;33725;-54
2022/03/17 05:11:26;;;;;;;29.63;21.00;;;;;;;7.17;54.81;101745.78;5564090;32;33641;-54
2022/03/17 05:14:28;;;;;;;26.35;20.98;;;;;;;7.26;53.95;101752.44;5563900;32;34213;-54
2022/03/17 05:17:32;;;;;;;28.60;20.95;;;;;;;7.17;54.30;101756.44;5564167;32;33567;-54
2022/03/17 05:20:35;;;;;;;32.25;21.77;;;;;;;7.37;54.04;101760.72;5574516;32;34013;-54
2022/03/17 05:23:38;;;;;;;29.73;20.23;;;;;;;7.58;53.02;101773.56;5582878;31;34227;-54
2022/03/17 05:26:40;;;;;;;27.17;20.80;;;;;;;7.83;52.14;101773.44;5581568;32;33532;-54
2022/03/17 05:29:43;;;;;;;27.48;20.12;;;;;;;7.80;52.26;101771.22;5581089;31;33508;-54
2022/03/17 05:32:47;;;;;;;28.30;20.83;;;;;;;7.85;52.20;101784.72;5577069;32;33734;-54
2022/03/17 05:35:49;;;;;;;27.25;20.70;;;;;;;7.80;52.08;101792.59;5582024;32;32207;-54
2022/03/17 05:38:51;;;;;;;30.15;21.00;;;;;;;7.88;52.01;101794.94;5568133;32;33663;-55
2022/03/17 05:41:54;;;;;;;28.15;21.50;;;;;;;8.06;51.25;101801.25;5571231;31;33567;-54
2022/03/17 05:44:56;;;;;;;29.50;20.65;;;;;;;8.10;51.57;101805.09;5583243;32;33576;-54
2022/03/17 05:48:01;;;;;;;29.65;21.52;;;;;;;7.99;52.30;101812.84;5580630;31;33660;-54
2022/03/17 05:51:03;;;;;;;28.23;21.37;;;;;;;8.05;50.93;101815.66;5563386;32;33267;-54
2022/03/17 05:54:06;;;;;;;30.85;21.40;;;;;;;8.00;52.24;101824.34;5563697;32;33663;-54
2022/03/17 05:57:10;;;;;;;27.40;21.30;;;;;;;8.23;50.41;101832.41;5563771;32;33666;-54
2022/03/17 06:00:19;;;;;;;27.08;21.45;;;;;;;8.27;50.06;101835.44;5563284;32;34391;-54
2022/03/17 06:03:21;;;;;;;30.27;22.27;;;;;;;8.22;50.21;101846.81;5564140;32;33755;-54
2022/03/17 06:06:23;;;;;;;32.40;22.70;;;;;;;8.22;50.22;101838.81;5582959;32;34370;-54
2022/03/17 06:09:25;;;;;;;32.33;23.30;;;;;;;8.41;49.39;101844.94;5582328;31;33697;-54
2022/03/17 06:12:28;;;;;;;30.60;23.08;;;;;;;8.46;49.26;101842.38;5574863;32;33708;-53
2022/03/17 06:15:31;;;;;;;30.60;22.83;;;;;;;8.58;48.30;101844.25;5569444;32;34408;-54
2022/03/17 06:18:34;;;;;;;28.83;22.48;;;;;;;8.73;47.80;101855.31;5568773;32;33645;-54
2022/03/17 06:21:37;;;;;;;31.58;22.75;;;;;;;8.73;47.40;101865.19;5569278;32;33834;-53
2022/03/17 06:24:39;;;;;;;30.02;22.62;;;;;;;8.83;47.29;101862.75;5564454;32;33593;-54
2022/03/17 06:27:43;;;;;;;29.80;22.13;;;;;;;8.84;46.78;101864.37;5569230;32;34433;-53
2022/03/17 06:30:45;;;;;;;31.48;23.98;;;;;;;8.60;47.64;101872.38;5556387;32;33701;-54
2022/03/17 06:33:48;;;;;;;30.05;23.12;;;;;;;8.71;47.85;101876.12;5554583;32;33612;-54
2022/03/17 06:36:50;;;;;;;29.60;23.00;;;;;;;8.86;47.78;101873.00;5555075;32;33492;-54
2022/03/17 06:39:55;;;;;;;31.20;23.38;;;;;;;8.81;48.12;101884.37;5555802;32;33648;-54
2022/03/17 06:42:57;;;;;;;33.17;23.75;;;;;;;9.00;46.97;101886.94;5549733;32;33680;-53
2022/03/17 06:46:00;;;;;;;35.50;24.63;;;;;;;8.85;47.56;101879.38;5549524;32;33646;-54
2022/03/17 06:49:02;;;;;;;31.45;23.73;;;;;;;9.02;46.30;101884.84;5560731;32;34293;-54
2022/03/17 06:52:05;;;;;;;34.75;25.52;;;;;;;9.25;45.38;101898.22;5568294;32;33617;-54
2022/03/17 06:55:08;;;;;;;36.22;25.52;;;;;;;9.21;45.92;101893.59;5567887;32;34346;-54
2022/03/17 06:58:10;;;;;;;33.25;25.50;;;;;;;9.32;44.58;101893.56;5568786;32;34173;-56
2022/03/17 07:01:12;;;;;;;32.88;25.12;;;;;;;9.38;44.31;101902.53;5568942;32;34490;-56
2022/03/17 07:04:15;;;;;;;38.90;26.27;;;;;;;9.45;44.05;101913.09;5568943;32;33724;-56
2022/03/17 07:07:17;;;;;;;41.05;27.40;;;;;;;9.29;44.41;101899.38;5568828;32;33785;-56
2022/03/17 07:10:20;;;;;;;36.70;26.40;;;;;;;9.20;44.69;101903.44;5568946;32;34293;-56
2022/03/17 07:13:22;;;;;;;40.55;26.60;;;;;;;9.21;44.63;101897.06;5549731;32;33735;-57
2022/03/17 07:16:25;;;;;;;36.38;26.02;;;;;;;9.24;45.07;101903.78;5547978;32;34231;-56
2022/03/17 07:19:29;;;;;;;39.35;27.13;;;;;;;9.30;44.55;101890.28;5554762;32;33762;-53
2022/03/17 07:22:34;;;;;;;42.10;27.83;;;;;;;9.29;44.72;101896.69;5567792;32;34233;-53
2022/03/17 07:25:36;;;;;;;37.10;27.73;;;;;;;9.18;45.30;101901.03;5567597;32;33727;-54
2022/03/17 07:28:39;;;;;;;37.83;27.50;;;;;;;9.10;45.86;101901.34;5568308;32;33541;-54
2022/03/17 07:31:41;;;;;;;36.35;26.77;;;;;;;9.25;45.74;101887.53;5567866;32;33574;-54
2022/03/17 07:34:43;;;;;;;37.65;27.77;;;;;;;9.16;46.10;101889.72;5568588;32;33657;-53
2022/03/17 07:37:46;;;;;;;37.83;28.33;;;;;;;9.17;46.64;101893.22;5568871;32;33670;-54
2022/03/17 07:40:48;;;;;;;39.75;28.15;;;;;;;9.17;46.50;101896.72;5568441;32;33696;-54
2022/03/17 07:43:51;;;;;;;38.45;26.87;;;;;;;9.24;46.60;101898.44;5562024;32;34042;-55
2022/03/17 07:46:58;;;;;;;36.55;26.90;;;;;;;9.23;46.71;101900.31;5557413;32;33245;-54
2022/03/17 07:50:05;;;;;;;35.97;27.13;;;;;;;9.34;46.71;101894.16;5549232;32;34600;-53
2022/03/17 07:53:07;;;;;;;41.88;28.52;;;;;;;9.40;46.36;101892.38;5551780;32;33638;-54
2022/03/17 07:56:11;;;;;;;42.13;28.62;;;;;;;9.38;46.57;101895.31;5549167;32;34335;-53
2022/03/17 07:59:16;;;;;;;34.58;27.33;;;;;;;9.31;47.22;101905.31;5549435;32;33604;-56
2022/03/17 08:02:20;;;;;;;34.55;26.98;;;;;;;9.34;47.67;101902.19;5558889;32;32979;-56
2022/03/17 08:05:24;;;;;;;34.97;26.00;;;;;;;9.40;47.61;101905.75;5568731;32;33632;-56
2022/03/17 08:08:26;;;;;;;37.47;25.88;;;;;;;9.55;47.42;101906.09;5561615;32;34323;-56
2022/03/17 08:11:29;;;;;;;43.28;27.08;;;;;;;9.59;47.54;101914.47;5549140;32;34299;-56
2022/03/17 08:14:31;;;;;;;40.65;28.55;;;;;;;9.52;48.00;101924.50;5549096;32;34469;-54
2022/03/17 08:17:34;;;;;;;38.60;28.62;;;;;;;9.56;47.77;101923.78;5562751;32;33632;-54
2022/03/17 08:20:41;;;;;;;39.13;28.33;;;;;;;9.51;47.71;101926.38;5568436;32;33722;-54
2022/03/17 08:23:43;;;;;;;35.67;26.02;;;;;;;9.62;47.34;101932.75;5568748;32;33715;-54
2022/03/17 08:26:46;;;;;;;37.25;28.15;;;;;;;9.76;47.66;101928.75;5568366;32;33646;-54
2022/03/17 08:29:50;;;;;;;36.90;27.37;;;;;;;9.78;47.08;101926.66;5568886;32;33733;-54
2022/03/17 08:32:52;;;;;;;38.03;26.40;;;;;;;9.79;47.83;101940.84;5564858;32;33698;-53
2022/03/17 08:35:55;;;;;;;37.83;27.75;;;;;;;9.90;47.19;101942.72;5562796;32;33687;-54
2022/03/17 08:38:57;;;;;;;37.92;28.55;;;;;;;9.84;47.98;101940.97;5566564;32;33693;-54
2022/03/17 08:41:59;;;;;;;38.78;28.15;;;;;;;9.95;47.22;101950.84;5553678;32;33527;-54
2022/03/17 08:49:18;;;;;;;35.80;27.00;;;;;;;10.11;46.86;101950.09;5549887;32;33553;-53
2022/03/17 08:51:50;;;;;;;36.78;26.70;;;;;;;10.10;46.61;101945.78;5558665;32;33662;-54
2022/03/17 08:54:54;;;;;;;38.47;27.75;;;;;;;10.17;46.82;101952.88;5567737;32;33536;-54
2022/03/17 08:57:57;;;;;;;39.35;27.70;;;;;;;10.05;47.30;101955.59;5568489;32;33414;-54
2022/03/17 09:01:00;;;;;;;36.10;26.52;;;;;;;10.12;46.97;101948.22;5566936;32;33709;-55
2022/03/17 09:04:04;;;;;;;39.13;28.35;;;;;;;10.21;46.99;101960.19;5547719;32;34070;-54
2022/03/17 09:07:07;;;;;;;36.58;27.73;;;;;;;10.28;46.67;101952.84;5560132;32;33667;-54
2022/03/17 09:10:10;;;;;;;35.05;27.55;;;;;;;10.33;46.23;101949.44;5565283;32;33596;-54
2022/03/17 09:13:13;;;;;;;36.38;27.73;;;;;;;10.38;46.38;101960.25;5555565;32;33697;-54
2022/03/17 09:16:18;;;;;;;33.97;26.12;;;;;;;10.39;46.13;101956.53;5565347;32;33781;-53
2022/03/17 09:19:21;;;;;;;39.65;27.35;;;;;;;10.48;45.71;101965.00;5566714;32;34297;-54
2022/03/17 09:22:23;;;;;;;36.85;28.48;;;;;;;10.55;45.23;101963.78;5567428;32;33733;-54
2022/03/17 09:25:30;;;;;;;34.33;26.67;;;;;;;10.67;45.64;101963.75;5566719;32;33596;-54
2022/03/17 09:28:33;;;;;;;39.63;27.67;;;;;;;10.73;44.91;101961.97;5567411;32;33644;-54
2022/03/17 09:31:35;;;;;;;35.75;27.70;;;;;;;10.80;44.68;101962.63;5566729;32;33078;-54
2022/03/17 09:34:37;;;;;;;38.78;28.83;;;;;;;10.79;44.57;101963.66;5566798;32;33727;-54
2022/03/17 09:37:41;;;;;;;41.35;29.23;;;;;;;10.82;44.73;101963.16;5557106;32;33570;-54
2022/03/17 09:40:44;;;;;;;38.85;28.45;;;;;;;10.81;44.99;101962.37;5563689;32;34203;-54
2022/03/17 09:43:46;;;;;;;40.75;29.48;;;;;;;10.89;44.94;101961.12;5566962;32;33786;-53
2022/03/17 09:46:50;;;;;;;38.58;29.87;;;;;;;10.97;45.44;101954.56;5548875;32;33795;-54
2022/03/17 09:49:56;;;;;;;37.30;28.02;;;;;;;11.11;44.35;101957.75;5566667;32;32676;-54
2022/03/17 09:52:59;;;;;;;41.50;29.25;;;;;;;11.21;44.47;101955.22;5570054;32;33490;-54
2022/03/17 09:56:02;;;;;;;41.25;30.77;;;;;;;11.33;43.64;101958.63;5569402;32;34264;-54
2022/03/17 09:59:06;;;;;;;39.17;30.33;;;;;;;11.30;43.55;101951.06;5563365;32;33553;-54
2022/03/17 10:02:13;;;;;;;;;;;;;;;11.32;43.80;101945.44;5567389;32;33775;-54
2022/03/17 10:05:18;;;;;;;38.17;28.40;;;;;;;11.34;44.23;101948.69;5568871;32;33721;-54
2022/03/17 10:08:23;;;;;;;43.30;29.48;;;;;;;11.48;43.51;101952.63;5559246;32;33658;-54
2022/03/17 10:11:31;;;;;;;37.53;28.95;;;;;;;11.43;43.67;101952.59;5567528;32;34405;-54
2022/03/17 10:14:49;;;;;;;40.53;29.42;;;;;;;11.55;43.75;101957.84;5565348;32;34536;-54
2022/03/17 10:17:52;;;;;;;55.78;31.10;;;;;;;11.66;43.34;101947.00;5560598;32;34447;-54
2022/03/17 10:21:12;;;;;;;45.53;30.12;;;;;;;11.72;43.60;101948.69;5566859;32;33858;-54
2022/03/17 10:24:16;;;;;;;61.90;31.40;;;;;;;11.80;42.86;101947.44;5558957;32;33751;-54
2022/03/17 10:27:39;;;;;;;38.55;30.23;;;;;;;11.81;42.49;101948.25;5568706;32;33833;-54
2022/03/17 10:30:41;;;;;;;52.10;31.65;;;;;;;11.88;42.28;101944.31;5562336;32;34555;-54
2022/03/17 10:33:43;;;;;;;62.00;30.85;;;;;;;11.84;43.08;101934.31;5566000;32;34262;-56
2022/03/17 10:36:47;;;;;;;43.10;29.30;;;;;;;11.91;42.90;101925.00;5569063;32;34332;-56
2022/03/17 10:39:55;;;;;;;41.22;29.52;;;;;;;12.08;42.06;101940.25;5566152;32;33583;-56
2022/03/17 10:43:20;;;;;;;41.08;31.30;;;;;;;11.97;41.76;101933.94;5565444;32;33638;-56
2022/03/17 10:46:22;;;;;;;38.28;28.90;;;;;;;11.96;41.93;101941.22;5568986;32;33527;-56
2022/03/17 10:49:25;;;;;;;39.53;29.37;;;;;;;12.03;41.80;101940.22;5568929;32;34319;-56
2022/03/17 10:52:45;;;;;;;42.72;28.40;;;;;;;12.02;42.19;101941.25;5566778;32;33690;-54
2022/03/17 10:55:49;;;;;;;41.00;28.35;;;;;;;12.04;41.83;101937.25;5567963;32;34365;-54
2022/03/17 10:58:51;;;;;;;36.58;27.98;;;;;;;12.06;41.40;101945.09;5568333;32;34299;-54
2022/03/17 11:02:17;;;;;;;39.65;28.23;;;;;;;12.04;41.82;101941.81;5569036;32;33778;-55
2022/03/17 11:05:20;;;;;;;;;;;;;;;12.15;41.86;101951.63;5559809;32;33434;-54
2022/03/17 11:08:22;;;;;;;41.03;27.62;;;;;;;12.19;41.23;101947.38;5563624;32;33941;-54
2022/03/17 11:11:24;;;;;;;38.58;27.80;;;;;;;12.17;42.16;101947.63;5549877;32;33718;-54
2022/03/17 11:14:27;;;;;;;36.42;27.60;;;;;;;12.33;41.56;101955.84;5564891;32;33673;-54
2022/03/17 11:17:36;;;;;;;35.90;27.70;;;;;;;12.32;41.14;101954.25;5568293;32;33716;-54
2022/03/17 11:20:39;;;;;;;38.40;26.67;;;;;;;12.32;41.76;101965.00;5569195;32;33806;-54
2022/03/17 11:23:55;;;;;;;35.67;26.55;;;;;;;12.37;42.27;101962.34;5568084;32;33755;-53
2022/03/17 11:27:16;;;;;;;;;;;;;;;12.42;41.88;101965.09;5549697;32;33815;-55
2022/03/17 11:30:18;;;;;;;37.67;28.90;;;;;;;12.44;42.27;101962.94;5566057;32;34077;-54
2022/03/17 11:33:32;;;;;;;35.65;28.35;;;;;;;12.52;41.84;101964.41;5569036;32;34396;-54
2022/03/17 11:36:34;;;;;;;38.22;27.75;;;;;;;12.57;41.44;101962.53;5565533;32;33662;-54
2022/03/17 11:40:10;;;;;;;36.28;27.83;;;;;;;12.68;42.41;101955.37;5561226;32;33813;-54
2022/03/17 11:43:12;;;;;;;;;;;;;;;12.74;41.37;101962.41;5567548;32;33783;-54
2022/03/17 11:46:19;;;;;;;39.70;28.55;;;;;;;12.78;41.60;101962.72;5568422;32;34207;-54
2022/03/17 11:49:27;;;;;;;38.67;29.23;;;;;;;12.81;41.13;101957.62;5567610;32;34220;-54
2022/03/17 11:52:30;;;;;;;46.30;28.70;;;;;;;12.88;40.80;101957.41;5565509;32;34404;-56
2022/03/17 11:55:41;;;;;;;36.33;29.23;;;;;;;12.92;40.37;101956.66;5562329;32;33906;-56
2022/03/17 11:58:46;;;;;;;37.53;29.27;;;;;;;12.85;40.73;101956.06;5558943;32;34357;-54
2022/03/17 12:01:49;;;;;;;35.90;29.17;;;;;;;12.88;40.48;101958.25;5563842;32;34277;-54
2022/03/17 12:04:51;;;;;;;38.63;27.95;;;;;;;12.77;39.87;101961.91;5549391;32;34559;-54
2022/03/17 12:07:57;;;;;;;40.58;29.83;;;;;;;12.78;41.12;101963.56;5551413;32;33674;-54
2022/03/17 12:11:10;;;;;;;;;;;;;;;12.88;39.26;101958.25;5554910;32;33795;-54
2022/03/17 12:14:17;;;;;;;40.15;28.70;;;;;;;12.92;39.24;101951.28;5553206;32;34069;-54
2022/03/17 12:17:22;;;;;;;39.88;30.20;;;;;;;13.07;39.35;101957.84;5563425;32;33744;-54
2022/03/17 12:20:25;;;;;;;37.20;29.85;;;;;;;13.13;39.11;101952.25;5565224;32;33272;-54
2022/03/17 12:23:49;;;;;;;35.50;28.20;;;;;;;13.13;38.99;101954.12;5553014;32;34114;-54
2022/03/17 12:27:03;;;;;;;38.60;27.65;;;;;;;13.12;39.73;101960.59;5568128;32;33755;-54
2022/03/17 12:30:08;;;;;;;36.45;27.52;;;;;;;13.01;39.14;101950.78;5561060;32;33792;-54
2022/03/17 12:33:11;;;;;;;40.38;28.75;;;;;;;12.93;39.41;101944.03;5568165;32;34391;-54
2022/03/17 12:36:15;;;;;;;35.25;27.02;;;;;;;13.05;39.25;101950.03;5560615;32;34370;-54
2022/03/17 12:39:26;;;;;;;36.58;27.83;;;;;;;13.05;39.07;101950.03;5563117;32;33766;-54
2022/03/17 12:42:30;;;;;;;35.20;27.40;;;;;;;13.13;38.16;101943.34;5563002;32;33787;-55
2022/03/17 12:45:36;;;;;;;37.28;28.55;;;;;;;13.08;38.00;101948.72;5565988;32;33676;-55
2022/03/17 12:48:39;;;;;;;35.50;28.45;;;;;;;13.11;38.38;101949.00;5567853;32;33599;-54
2022/03/17 12:51:41;;;;;;;40.00;29.30;;;;;;;13.07;38.28;101942.50;5567550;32;34224;-54
2022/03/17 12:54:55;;;;;;;36.38;27.95;;;;;;;13.10;38.95;101947.38;5566177;32;34283;-54
2022/03/17 12:57:58;;;;;;;37.45;28.70;;;;;;;13.11;39.65;101943.62;5568093;32;33880;-54
2022/03/17 13:01:00;;;;;;;40.88;28.70;;;;;;;13.16;38.50;101942.84;5565599;32;34466;-53
2022/03/17 13:04:04;;;;;;;37.60;27.95;;;;;;;13.24;38.73;101949.63;5567857;32;33722;-54
2022/03/17 13:07:07;;;;;;;35.53;27.85;;;;;;;13.23;38.66;101945.31;5562162;32;34444;-54
2022/03/17 13:10:09;;;;;;;42.88;28.40;;;;;;;13.22;38.48;101941.81;5565629;32;33743;-54
2022/03/17 13:16:33;;;;;;;35.15;27.75;;;;;;;13.27;38.46;101946.44;5564713;32;34258;-55
2022/03/17 13:19:46;;;;;;;40.95;28.45;;;;;;;13.37;38.98;101946.50;5567160;32;34034;-54
2022/03/17 13:23:14;;;;;;;36.33;28.75;;;;;;;13.41;39.08;101944.94;5568896;32;33694;-54
2022/03/17 13:26:25;;;;;;;36.63;26.50;;;;;;;13.39;39.94;101952.44;5556293;32;33695;-54
2022/03/17 13:29:28;;;;;;;34.83;27.95;;;;;;;13.32;40.21;101941.91;5570205;32;33669;-54
2022/03/17 13:32:32;;;;;;;34.83;27.20;;;;;;;13.18;39.52;101943.41;5569640;32;33647;-54
2022/03/17 13:35:40;;;;;;;35.30;26.80;;;;;;;13.34;39.73;101945.16;5569634;32;34325;-54
2022/03/17 13:38:42;;;;;;;37.80;27.83;;;;;;;13.32;40.89;101949.16;5564850;32;33779;-54
2022/03/17 13:41:58;;;;;;;36.17;25.45;;;;;;;13.34;40.37;101944.31;5564345;32;33697;-54
2022/03/17 13:45:03;;;;;;;31.67;26.12;;;;;;;13.32;40.72;101949.16;5555935;32;34388;-54
2022/03/17 13:48:27;;;;;;;33.67;26.40;;;;;;;13.32;40.91;101941.09;5568871;32;33913;-54
2022/03/17 13:51:34;;;;;;;33.65;24.42;;;;;;;13.48;40.99;101942.00;5553952;32;33694;-54
2022/03/17 13:54:41;;;;;;;31.75;24.98;;;;;;;13.44;40.57;101947.06;5561519;32;34294;-54
2022/03/17 13:57:44;;;;;;;34.88;26.37;;;;;;;13.36;42.25;101944.88;5570031;32;34464;-54
2022/03/17 14:00:50;;;;;;;33.20;23.75;;;;;;;13.41;41.05;101947.63;5569639;32;34219;-54
2022/03/17 14:03:59;;;;;;;32.03;25.40;;;;;;;13.41;41.36;101950.31;5569251;32;33744;-54
2022/03/17 14:07:01;;;;;;;34.38;25.48;;;;;;;13.39;41.35;101944.38;5568536;32;33292;-54
2022/03/17 14:10:04;;;;;;;33.50;24.15;;;;;;;13.37;41.63;101946.50;5567648;31;33679;-54
2022/03/17 14:13:06;;;;;;;33.25;24.92;;;;;;;13.32;42.27;101952.69;5554631;32;34508;-54
2022/03/17 14:16:12;;;;;;;32.55;25.88;;;;;;;13.28;41.52;101948.87;5557106;32;33832;-54
2022/03/17 14:19:15;;;;;;;33.55;25.27;;;;;;;13.28;41.39;101940.00;5569328;32;33725;-54
2022/03/17 14:25:38;;;;;;;29.27;24.45;;;;;;;13.34;42.37;101945.16;5564813;32;33758;-54
2022/03/17 14:28:41;;;;;;;32.50;24.10;;;;;;;13.31;42.45;101944.84;5559258;32;33688;-54
2022/03/17 14:31:45;;;;;;;31.35;24.00;;;;;;;13.32;42.86;101935.72;5566750;32;33759;-54
2022/03/17 14:34:48;;;;;;;37.28;24.80;;;;;;;13.31;42.67;101936.75;5563585;32;33693;-54
2022/03/17 14:37:50;;;;;;;33.55;24.30;;;;;;;13.34;42.28;101941.63;5556601;32;33587;-54
2022/03/17 14:40:52;;;;;;;30.95;24.55;;;;;;;13.33;43.04;101940.00;5569260;32;34364;-54
2022/03/17 14:43:58;;;;;;;34.83;23.92;;;;;;;13.28;42.65;101940.81;5554231;32;34305;-54
2022/03/17 14:47:00;;;;;;;;;;;;;;;13.14;43.41;101948.50;5556294;32;34298;-54
2022/03/17 14:50:04;;;;;;;30.42;22.52;;;;;;;13.12;43.57;101950.62;5568112;32;34190;-55
2022/03/17 14:53:06;;;;;;;27.05;22.90;;;;;;;13.15;43.71;101954.69;5566488;32;33709;-54
2022/03/17 14:56:12;;;;;;;30.77;24.05;;;;;;;12.99;44.69;101951.06;5562382;32;33643;-54
2022/03/17 14:59:14;;;;;;;32.03;23.53;;;;;;;13.08;43.67;101954.91;5554442;32;33701;-54
2022/03/17 15:02:17;;;;;;;29.23;23.67;;;;;;;13.06;43.78;101954.34;5564491;32;33786;-54
2022/03/17 15:05:20;;;;;;;30.77;24.27;;;;;;;13.13;44.29;101957.62;5560037;32;33598;-54
2022/03/17 15:08:22;;;;;;;34.22;25.40;;;;;;;13.01;46.45;101962.37;5558284;32;34331;-54
2022/03/17 15:11:26;;;;;;;34.95;27.30;;;;;;;12.92;47.61;101961.25;5569047;32;33594;-54
2022/03/17 15:14:28;;;;;;;31.52;22.45;;;;;;;12.84;48.05;101972.47;5563508;32;33667;-54
2022/03/17 15:17:30;;;;;;;28.60;22.45;;;;;;;12.72;49.52;101961.09;5563140;32;34427;-54
2022/03/17 15:20:34;;;;;;;32.50;23.27;;;;;;;12.77;48.79;101970.00;5560538;32;33695;-53
2022/03/17 15:23:36;;;;;;;35.70;23.23;;;;;;;12.54;49.72;101973.81;5568889;32;33769;-54
2022/03/17 15:26:38;;;;;;;32.65;24.55;;;;;;;12.47;50.26;101981.28;5558907;32;33870;-54
2022/03/17 15:33:02;;;;;;;42.20;33.35;;;;;;;12.53;49.90;101988.34;5568214;32;33448;-54
2022/03/17 15:36:05;;;;;;;35.95;27.40;;;;;;;12.62;50.02;101996.78;5568904;32;34344;-53
2022/03/17 15:39:09;;;;;;;33.35;24.42;;;;;;;12.66;51.43;101990.63;5565421;32;34257;-54
2022/03/17 15:42:11;;;;;;;33.10;24.63;;;;;;;12.73;49.67;101997.69;5566430;32;34070;-54
2022/03/17 15:45:14;;;;;;;28.23;23.90;;;;;;;12.77;49.45;101994.22;5567382;32;34263;-54
2022/03/17 15:48:16;;;;;;;29.73;24.50;;;;;;;12.63;49.83;102003.78;5568717;32;33764;-54
2022/03/17 15:51:18;;;;;;;31.55;23.62;;;;;;;12.45;50.65;102008.44;5568012;32;34732;-54
2022/03/17 15:54:21;;;;;;;33.15;23.98;;;;;;;12.50;50.81;102010.34;5564543;32;33553;-54
2022/03/17 15:57:24;;;;;;;35.92;24.35;;;;;;;12.44;51.34;102017.56;5567715;32;33633;-54
2022/03/17 16:00:30;;;;;;;31.50;26.10;;;;;;;12.43;51.09;102025.88;5561501;32;34424;-54
2022/03/17 16:03:36;;;;;;;37.47;27.85;;;;;;;12.27;51.56;102024.09;5563865;32;33894;-54
2022/03/17 16:06:39;;;;;;;36.45;30.20;;;;;;;12.14;52.17;102036.03;5566725;32;33655;-54
2022/03/17 16:16:24;;;;;;;32.15;25.73;;;;;;;12.26;51.75;102035.91;5568347;32;33968;-54
2022/03/17 16:19:27;;;;;;;31.65;24.15;;;;;;;11.95;52.70;102051.63;5567951;32;33853;-54
2022/03/17 16:22:29;;;;;;;35.85;23.67;;;;;;;12.08;52.29;102055.84;5554822;32;34383;-54
2022/03/17 16:25:32;;;;;;;31.52;24.92;;;;;;;12.07;52.57;102059.59;5549692;32;33248;-54
2022/03/17 16:28:34;;;;;;;31.67;24.45;;;;;;;12.09;52.70;102058.28;5567977;32;34430;-54
2022/03/17 16:31:45;;;;;;;29.30;23.70;;;;;;;12.22;52.31;102066.00;5559249;32;33872;-55
2022/03/17 16:34:48;;;;;;;31.87;24.48;;;;;;;12.22;52.25;102051.75;5561857;32;34282;-54
2022/03/17 16:37:50;;;;;;;32.10;23.55;;;;;;;11.92;53.00;102063.72;5564678;32;33437;-55
2022/03/17 16:40:52;;;;;;;34.10;25.23;;;;;;;11.89;53.05;102066.09;5567557;32;33768;-54
2022/03/17 16:43:55;;;;;;;29.58;23.50;;;;;;;11.69;53.75;102074.63;5554376;32;33716;-54
2022/03/17 16:46:58;;;;;;;30.95;24.27;;;;;;;11.65;53.83;102078.84;5558746;32;33880;-54
